ワシントン/ダレス の空港の天気 - METARとTAF

ワシントン・ダレス国際空港 ( KIAD / IAD ) - アメリカ バージニア州ダレス
飛行場実況気象(Metar)
観測時間02/17 09:52 EST (02/17 14:52 UTC)
風向・風速東南東 4m/s
視程10km以上
天気現象
少しの雲 雲底高度 1520m
少しの雲 雲底高度 4880m
全天の8割程度の雲 雲底高度 6100m
気温1.1℃
湿度56%
気圧1018.6hPa
METARKIAD 171452Z 11007KT 10SM FEW050 FEW160 BKN200 01/M07 A3007 RMK AO2 PRESFR SLP186 T00111067 58016
過去の天気等 Google飛行場航空写真 Wunderground天気予報

過去48時間のMETAR

飛行場予報(TAF)
発表時間: 2/17 09:59 EST (2/17 14:59 UTC)
予報対象時間: 17日10時 EST ~ 18日13時 EST
風向・風速南東 4m/s 瞬間風速 8m/s
視程10km以上
全天の8割程度の雲 雲底高度 1520m
17日18時 EST から
風向・風速南南東 4m/s
視程4830m
天気現象弱い雨
全天を覆う雲 雲底高度 760m
17日22時 EST から
風向・風速南 4m/s
18日1時 EST から
風向・風速南 2m/s
視程4830m
天気現象弱い雨
全天を覆う雲 雲底高度 300m
18日4時 EST から
風向・風速不定 2m/s
視程10km以上
全天を覆う雲 雲底高度 300m
18日8時 EST から
風向・風速西北西 3m/s
視程10km以上
全天の8割程度の雲 雲底高度 1070m
18日10時 EST から
風向・風速西北西 5m/s 瞬間風速 9m/s
視程10km以上
全天の8割程度の雲 雲底高度 1220m
KIAD 171459Z 1715/1818 13008G16KT P6SM BKN050
FM172300 15007KT 3SM -RA OVC025
FM180300 17007KT 1 1/2SM -RA OVC010
FM180600 18004KT 3SM -RA OVC010
FM180900 VRB03KT P6SM OVC010
FM181300 29006KT P6SM BKN035
FM181500 29010G18KT P6SM BKN040